Time;durP1;ratioP1;P1;durP2;ratioP2;P2;SDS_P1;SDS_P2;PMS_P1;PMS_P2;Temp;Humidity;BMP_temperature;BMP_pressure;BME280_temperature;BME280_humidity;BME280_pressure;Samples;Min_cycle;Max_cycle;Signal;HPM_P1;HPM_P2
2021/12/21 00:00:15;;;;;;;17.52;5.88;;;0.70;90.80;;;;;;6227018;28;20133;-79
2021/12/21 00:03:18;;;;;;;27.52;7.25;;;0.70;90.80;;;;;;6227715;28;20046;-80
2021/12/21 00:06:20;;;;;;;11.88;4.95;;;0.70;90.90;;;;;;6226945;28;20046;-80
2021/12/21 00:09:22;;;;;;;23.92;7.00;;;0.70;90.90;;;;;;6227558;28;20052;-80
2021/12/21 00:12:27;;;;;;;10.43;5.22;;;0.60;90.80;;;;;;6227835;28;20081;-78
2021/12/21 00:15:39;;;;;;;16.55;6.00;;;0.60;90.80;;;;;;6227860;28;20050;-80
2021/12/21 00:18:49;;;;;;;14.98;5.28;;;0.60;90.80;;;;;;6226824;28;20042;-80
2021/12/21 00:21:56;;;;;;;16.27;5.28;;;0.60;90.80;;;;;;6228077;28;20046;-80
2021/12/21 00:24:58;;;;;;;12.52;5.65;;;0.60;90.80;;;;;;6228223;28;20126;-81
2021/12/21 00:28:01;;;;;;;29.52;6.07;;;0.50;90.70;;;;;;6232536;28;20595;-78
2021/12/21 00:31:03;;;;;;;25.05;6.50;;;0.50;90.70;;;;;;6242606;28;20046;-80
2021/12/21 00:34:08;;;;;;;20.38;7.55;;;0.40;90.60;;;;;;6237571;28;20068;-80
2021/12/21 00:37:10;;;;;;;12.88;5.55;;;0.40;90.60;;;;;;6178514;28;20049;-80
2021/12/21 00:40:12;;;;;;;13.88;5.72;;;0.40;90.70;;;;;;6242122;28;20073;-77
2021/12/21 00:43:14;;;;;;;13.23;5.88;;;0.30;90.60;;;;;;6250382;28;20105;-78
2021/12/21 00:46:16;;;;;;;22.75;7.07;;;0.30;90.60;;;;;;6235842;28;20103;-80
2021/12/21 00:49:21;;;;;;;18.80;6.35;;;0.30;90.60;;;;;;6231932;28;20519;-80
2021/12/21 00:52:22;;;;;;;11.20;5.80;;;0.20;90.60;;;;;;6231598;28;20050;-80
2021/12/21 00:55:25;;;;;;;12.45;5.45;;;0.20;90.60;;;;;;6232264;28;20056;-80
2021/12/21 00:58:27;;;;;;;15.15;5.43;;;0.10;90.70;;;;;;6231579;28;20426;-80
2021/12/21 01:01:29;;;;;;;20.23;5.68;;;0.10;90.70;;;;;;6231007;28;20508;-79
2021/12/21 01:04:36;;;;;;;19.17;6.43;;;0.00;90.80;;;;;;6231173;28;20045;-80
2021/12/21 01:07:42;;;;;;;;;;;0.00;91.00;;;;;;6232200;28;20070;-79
2021/12/21 01:10:59;;;;;;;29.00;6.03;;;0.00;91.10;;;;;;6231385;28;19932;-79
2021/12/21 01:14:14;;;;;;;19.83;5.50;;;0.00;91.10;;;;;;6230915;28;20053;-80
2021/12/21 01:17:22;;;;;;;14.98;6.15;;;0.00;91.20;;;;;;6228577;28;20042;-80
2021/12/21 01:20:32;;;;;;;12.77;5.95;;;-0.10;91.20;;;;;;6230348;28;20054;-79
2021/12/21 01:23:58;;;;;;;22.05;6.72;;;-0.10;91.30;;;;;;6230932;28;20050;-79
2021/12/21 01:27:11;;;;;;;14.00;5.10;;;-0.10;91.30;;;;;;6229929;28;20053;-79
2021/12/21 01:30:22;;;;;;;19.48;5.32;;;-0.10;91.40;;;;;;6230130;28;20060;-79
2021/12/21 01:33:39;;;;;;;12.75;5.13;;;-0.10;91.40;;;;;;6230079;28;20048;-79
2021/12/21 01:36:49;;;;;;;11.95;4.57;;;-0.10;91.40;;;;;;6230213;28;20045;-80
2021/12/21 01:40:15;;;;;;;20.60;5.95;;;-0.10;91.50;;;;;;6230023;28;20132;-80
2021/12/21 01:43:25;;;;;;;11.07;4.07;;;-0.10;91.50;;;;;;6230085;28;20522;-78
2021/12/21 01:49:50;;;;;;;17.75;5.80;;;-0.20;91.50;;;;;;6230520;28;20062;-81
2021/12/21 01:52:53;;;;;;;12.82;4.18;;;-0.20;91.60;;;;;;6230673;28;20049;-81
2021/12/21 01:55:55;;;;;;;17.80;7.32;;;-0.20;91.60;;;;;;6230409;28;20050;-80
2021/12/21 01:58:58;;;;;;;15.38;5.00;;;-0.10;91.60;;;;;;6230067;28;20056;-80
2021/12/21 02:02:00;;;;;;;22.58;6.93;;;-0.10;91.60;;;;;;6229514;28;20125;-80
2021/12/21 02:05:02;;;;;;;13.85;5.88;;;-0.10;91.50;;;;;;6229152;28;20147;-80
2021/12/21 02:08:06;;;;;;;23.55;6.60;;;-0.10;91.50;;;;;;6228313;28;20478;-80
2021/12/21 02:11:07;;;;;;;20.30;6.40;;;-0.10;91.40;;;;;;6229019;28;20069;-80
2021/12/21 02:14:10;;;;;;;16.77;7.25;;;-0.10;91.30;;;;;;6228429;28;20042;-80
2021/12/21 02:17:37;;;;;;;17.58;7.70;;;-0.10;91.30;;;;;;6228215;28;20129;-80
2021/12/21 02:20:45;;;;;;;18.00;6.47;;;-0.10;91.40;;;;;;6228444;28;20045;-80
2021/12/21 02:23:48;;;;;;;;;;;-0.10;91.40;;;;;;6228937;28;20049;-80
2021/12/21 02:26:54;;;;;;;16.60;5.75;;;-0.20;91.30;;;;;;6228760;28;20393;-80
2021/12/21 02:29:56;;;;;;;14.30;5.28;;;-0.20;91.50;;;;;;6228255;28;20132;-79
2021/12/21 02:32:58;;;;;;;11.82;6.05;;;-0.20;91.50;;;;;;6228448;28;20046;-80
2021/12/21 02:36:01;;;;;;;15.55;5.65;;;-0.20;91.50;;;;;;6228361;28;20133;-79
2021/12/21 02:39:05;;;;;;;15.27;4.90;;;-0.20;91.40;;;;;;6229008;28;20054;-80
2021/12/21 02:42:08;;;;;;;12.27;6.45;;;-0.20;91.60;;;;;;6229302;28;20038;-80
2021/12/21 02:45:11;;;;;;;16.58;6.40;;;-0.20;91.50;;;;;;6227903;28;20076;-78
2021/12/21 02:48:13;;;;;;;22.08;5.55;;;-0.20;91.40;;;;;;6228371;28;20064;-80
2021/12/21 02:51:17;;;;;;;15.95;7.03;;;-0.20;91.40;;;;;;6228412;28;20053;-80
2021/12/21 02:54:21;;;;;;;16.50;5.03;;;-0.20;91.50;;;;;;6228216;28;20072;-79
2021/12/21 02:57:23;;;;;;;16.63;7.15;;;-0.30;91.40;;;;;;6228057;28;20052;-80
2021/12/21 03:00:26;;;;;;;14.57;5.35;;;-0.20;91.40;;;;;;6228804;28;20228;-79
2021/12/21 03:03:27;;;;;;;22.20;6.40;;;-0.30;91.40;;;;;;6229561;28;20046;-79
2021/12/21 03:09:56;;;;;;;14.02;5.25;;;-0.30;91.40;;;;;;6209642;28;20400;-78
2021/12/21 03:16:18;;;;;;;13.27;7.22;;;-0.30;91.50;;;;;;6227344;28;20042;-79
2021/12/21 03:19:20;;;;;;;26.30;5.70;;;-0.30;91.40;;;;;;6228342;28;20136;-80
2021/12/21 03:22:23;;;;;;;16.40;6.55;;;-0.30;91.50;;;;;;6227056;28;20077;-80
2021/12/21 03:25:25;;;;;;;19.73;6.50;;;-0.30;91.50;;;;;;6227481;28;20188;-80
2021/12/21 03:28:27;;;;;;;13.57;5.63;;;-0.30;91.40;;;;;;6227991;28;20049;-79
2021/12/21 03:31:29;;;;;;;39.72;12.05;;;-0.30;91.30;;;;;;6228349;28;20142;-79
2021/12/21 03:34:30;;;;;;;11.18;3.75;;;-0.30;91.20;;;;;;6227452;28;20519;-79
2021/12/21 03:37:36;;;;;;;13.50;5.93;;;-0.30;91.30;;;;;;6227912;28;20072;-79
2021/12/21 03:40:38;;;;;;;14.88;5.38;;;-0.40;91.30;;;;;;6230001;28;20124;-79
2021/12/21 03:43:39;;;;;;;14.02;4.95;;;-0.40;91.30;;;;;;6227938;28;20127;-79
2021/12/21 03:46:46;;;;;;;12.75;5.38;;;-0.40;91.40;;;;;;6226787;28;20084;-79
2021/12/21 03:49:57;;;;;;;13.60;5.80;;;-0.40;91.50;;;;;;6226979;28;20054;-79
2021/12/21 03:53:00;;;;;;;15.88;4.63;;;-0.40;91.40;;;;;;6227055;28;20038;-78
2021/12/21 03:56:16;;;;;;;14.57;5.68;;;-0.40;91.30;;;;;;6226946;28;20048;-79
2021/12/21 03:59:19;;;;;;;15.98;5.85;;;-0.50;91.30;;;;;;6227795;28;20052;-79
2021/12/21 04:02:23;;;;;;;19.88;6.78;;;-0.50;91.30;;;;;;6226536;28;20068;-79
2021/12/21 04:05:24;;;;;;;18.25;6.30;;;-0.50;91.30;;;;;;6226572;28;20046;-79
2021/12/21 04:08:28;;;;;;;23.20;5.85;;;-0.50;91.40;;;;;;6226859;28;20057;-81
2021/12/21 04:11:30;;;;;;;9.63;4.28;;;-0.50;91.70;;;;;;6226679;28;20056;-78
2021/12/21 04:14:32;;;;;;;25.05;6.43;;;-0.60;91.70;;;;;;6225980;28;20046;-79
2021/12/21 04:17:37;;;;;;;18.58;4.40;;;-0.60;91.70;;;;;;6236098;28;20092;-76
2021/12/21 04:20:39;;;;;;;14.55;4.60;;;-0.60;91.80;;;;;;6222026;28;20081;-77
2021/12/21 04:23:44;;;;;;;12.48;4.55;;;-0.50;91.80;;;;;;6221988;28;20131;-76
2021/12/21 04:26:45;;;;;;;17.13;5.72;;;-0.50;91.80;;;;;;6224243;28;20053;-79
2021/12/21 04:29:47;;;;;;;24.27;5.68;;;-0.50;91.90;;;;;;6222822;28;20052;-80
2021/12/21 04:32:49;;;;;;;22.52;6.20;;;-0.50;91.80;;;;;;6222017;28;20045;-77
2021/12/21 04:35:51;;;;;;;8.63;4.18;;;-0.50;91.80;;;;;;6221354;28;20563;-77
2021/12/21 04:38:55;;;;;;;18.13;6.25;;;-0.50;91.90;;;;;;6222227;28;20049;-76
2021/12/21 04:41:57;;;;;;;20.58;7.50;;;-0.50;91.80;;;;;;6221452;28;20054;-77
2021/12/21 04:44:59;;;;;;;14.60;6.10;;;-0.40;91.80;;;;;;6221180;28;20068;-79
2021/12/21 04:48:00;;;;;;;21.77;6.00;;;-0.40;91.90;;;;;;6221713;28;20050;-77
2021/12/21 04:51:03;;;;;;;18.33;5.88;;;-0.40;91.80;;;;;;6222089;28;20052;-76
2021/12/21 04:54:06;;;;;;;11.65;6.38;;;-0.40;91.70;;;;;;6221331;28;20124;-77
2021/12/21 04:57:08;;;;;;;12.35;4.32;;;-0.30;91.70;;;;;;6221163;28;20054;-75
2021/12/21 05:00:11;;;;;;;17.27;5.75;;;-0.40;91.60;;;;;;6221670;28;20095;-77
2021/12/21 05:03:13;;;;;;;9.32;5.22;;;-0.40;91.60;;;;;;6221909;28;20184;-76
2021/12/21 05:06:17;;;;;;;13.10;6.13;;;-0.40;91.60;;;;;;6221095;28;20107;-79
2021/12/21 05:09:25;;;;;;;10.65;5.50;;;-0.40;91.70;;;;;;6224226;28;20046;-78
2021/12/21 05:12:27;;;;;;;9.95;5.10;;;-0.40;91.70;;;;;;6222317;28;20235;-77
2021/12/21 05:15:29;;;;;;;10.93;5.03;;;-0.50;91.70;;;;;;6224412;28;20054;-77
2021/12/21 05:18:32;;;;;;;8.18;4.57;;;-0.50;91.70;;;;;;6202740;28;20045;-78
2021/12/21 05:21:35;;;;;;;17.00;6.80;;;-0.50;91.80;;;;;;6216077;28;20112;-78
2021/12/21 05:24:38;;;;;;;7.60;4.18;;;-0.50;91.80;;;;;;6226970;28;20046;-78
2021/12/21 05:27:40;;;;;;;10.80;4.40;;;-0.50;91.80;;;;;;6226571;28;20057;-79
2021/12/21 05:30:42;;;;;;;25.42;7.72;;;-0.50;91.80;;;;;;6226452;28;20053;-78
2021/12/21 05:33:45;;;;;;;19.38;5.47;;;-0.40;91.70;;;;;;6226455;28;20053;-79
2021/12/21 05:36:47;;;;;;;10.30;3.80;;;-0.50;91.60;;;;;;6225474;28;20060;-79
2021/12/21 05:39:57;;;;;;;25.38;5.63;;;-0.50;91.70;;;;;;6225731;28;20156;-78
2021/12/21 05:42:59;;;;;;;15.90;5.78;;;-0.50;91.60;;;;;;6227865;28;20181;-77
2021/12/21 05:46:01;;;;;;;15.50;6.15;;;-0.50;91.60;;;;;;6224544;28;20053;-78
2021/12/21 05:49:03;;;;;;;12.65;5.28;;;-0.40;91.60;;;;;;6227388;28;20075;-79
2021/12/21 05:52:06;;;;;;;12.45;5.63;;;-0.50;91.60;;;;;;6221422;28;20053;-79
2021/12/21 05:55:10;;;;;;;12.75;5.88;;;-0.50;91.60;;;;;;6229846;28;20123;-79
2021/12/21 05:58:12;;;;;;;18.25;6.07;;;-0.50;91.70;;;;;;6225428;28;20074;-77
2021/12/21 06:01:14;;;;;;;11.52;6.00;;;-0.50;91.60;;;;;;6228197;28;20053;-79
2021/12/21 06:04:16;;;;;;;18.38;5.13;;;-0.60;91.70;;;;;;6235205;28;20522;-79
2021/12/21 06:07:18;;;;;;;12.60;4.15;;;-0.50;91.80;;;;;;6234547;28;20050;-79
2021/12/21 06:10:27;;;;;;;16.58;6.15;;;-0.50;91.80;;;;;;6234322;28;20125;-80
2021/12/21 06:13:58;;;;;;;20.48;5.72;;;-0.50;91.80;;;;;;6234383;28;20053;-79
2021/12/21 06:26:57;;;;;;;21.33;8.48;;;-0.40;91.60;;;;;;6231191;28;20046;-80
2021/12/21 06:29:59;;;;;;;18.40;7.13;;;-0.40;91.40;;;;;;6231334;28;20046;-80
2021/12/21 06:33:02;;;;;;;20.85;6.45;;;-0.40;91.40;;;;;;6225336;28;20046;-77
2021/12/21 06:36:07;;;;;;;10.18;4.82;;;-0.30;91.50;;;;;;6226618;28;20377;-79
2021/12/21 06:39:10;;;;;;;23.17;6.15;;;-0.30;91.40;;;;;;6229486;28;20072;-79
2021/12/21 06:42:14;;;;;;;10.75;4.95;;;-0.40;91.30;;;;;;6227672;28;20057;-79
2021/12/21 06:45:27;;;;;;;8.25;5.00;;;-0.40;91.40;;;;;;6227668;28;20252;-79
2021/12/21 06:51:51;;;;;;;7.57;3.42;;;-0.40;91.30;;;;;;6225703;28;20046;-80
2021/12/21 06:54:53;;;;;;;12.05;5.93;;;-0.40;91.30;;;;;;6226151;28;20088;-79
2021/12/21 06:57:56;;;;;;;18.50;7.57;;;-0.40;91.30;;;;;;6225486;28;20142;-78
2021/12/21 07:00:59;;;;;;;11.43;4.80;;;-0.40;91.30;;;;;;6226165;28;20128;-79
2021/12/21 07:04:01;;;;;;;14.90;5.53;;;-0.40;91.30;;;;;;6226303;28;20053;-78
2021/12/21 07:07:04;;;;;;;13.40;5.20;;;-0.30;91.10;;;;;;6226685;28;20495;-79
2021/12/21 07:10:10;;;;;;;13.68;6.15;;;-0.30;91.10;;;;;;6227268;28;20057;-80
2021/12/21 07:19:52;;;;;;;8.57;4.07;;;-0.40;91.00;;;;;;6225403;28;20050;-80
2021/12/21 07:22:55;;;;;;;16.95;5.97;;;-0.40;91.10;;;;;;6227759;28;20045;-79
2021/12/21 07:25:57;;;;;;;28.02;6.78;;;-0.50;91.10;;;;;;6226629;28;20466;-79
2021/12/21 07:29:00;;;;;;;16.13;6.05;;;-0.50;91.10;;;;;;6226672;28;20042;-79
2021/12/21 07:32:02;;;;;;;16.20;7.00;;;-0.40;91.20;;;;;;6228583;28;20042;-80
2021/12/21 07:35:06;;;;;;;13.70;5.07;;;-0.40;91.20;;;;;;6227503;28;20377;-80
2021/12/21 07:38:08;;;;;;;9.80;5.45;;;-0.40;91.10;;;;;;6225412;28;20121;-79
2021/12/21 07:41:09;;;;;;;18.15;5.50;;;-0.50;91.10;;;;;;6224927;28;20073;-78
2021/12/21 07:44:13;;;;;;;9.60;4.20;;;-0.50;91.20;;;;;;6223529;28;20519;-79
2021/12/21 07:47:16;;;;;;;14.30;6.88;;;-0.50;91.30;;;;;;6225246;28;20046;-80
2021/12/21 07:50:19;;;;;;;21.00;5.72;;;-0.40;91.30;;;;;;6225254;28;20176;-78
2021/12/21 07:53:21;;;;;;;18.75;6.40;;;-0.40;91.30;;;;;;6235032;28;20045;-79
2021/12/21 07:56:23;;;;;;;12.18;6.45;;;-0.40;91.30;;;;;;6238298;28;20105;-80
2021/12/21 07:59:27;;;;;;;23.48;6.68;;;-0.40;91.30;;;;;;6226308;28;20165;-79
2021/12/21 08:02:29;;;;;;;13.18;5.43;;;-0.30;91.30;;;;;;6224112;28;20042;-80
2021/12/21 08:05:33;;;;;;;10.73;5.10;;;-0.30;91.30;;;;;;6224197;28;20578;-79
2021/12/21 08:08:40;;;;;;;12.57;5.38;;;-0.20;91.30;;;;;;6224319;28;20041;-79
2021/12/21 08:15:10;;;;;;;11.68;5.38;;;-0.10;91.10;;;;;;6213596;28;20089;-80
2021/12/21 08:18:12;;;;;;;16.90;5.70;;;0.00;91.00;;;;;;6224234;28;20507;-79
2021/12/21 08:21:17;;;;;;;11.73;4.53;;;0.10;91.00;;;;;;6222712;28;20052;-79
2021/12/21 08:24:19;;;;;;;6.28;4.00;;;0.10;90.90;;;;;;6223883;28;20046;-80
2021/12/21 08:27:20;;;;;;;7.60;4.57;;;0.10;90.80;;;;;;6223402;28;20046;-79
2021/12/21 08:30:24;;;;;;;10.02;4.85;;;0.20;90.70;;;;;;6225040;28;20052;-79
2021/12/21 08:33:26;;;;;;;9.43;4.88;;;0.30;90.70;;;;;;6225702;28;20070;-79
2021/12/21 08:36:29;;;;;;;11.27;4.50;;;0.50;90.40;;;;;;6225075;28;20072;-79
2021/12/21 08:39:38;;;;;;;12.30;3.88;;;0.70;90.20;;;;;;6225836;28;20132;-80
2021/12/21 08:42:40;;;;;;;9.50;4.47;;;0.70;89.80;;;;;;6225340;28;20064;-79
2021/12/21 08:45:44;;;;;;;10.20;5.20;;;0.90;89.70;;;;;;6224632;28;20050;-81
2021/12/21 08:48:47;;;;;;;11.20;4.97;;;1.00;89.10;;;;;;6231791;28;20141;-81
2021/12/21 08:51:49;;;;;;;12.50;5.88;;;1.30;88.80;;;;;;6233803;28;20052;-80
2021/12/21 08:54:50;;;;;;;24.17;5.82;;;1.60;88.70;;;;;;6233732;28;20046;-80
2021/12/21 08:57:52;;;;;;;22.25;7.38;;;1.90;87.10;;;;;;6233817;28;20165;-81
2021/12/21 09:00:55;;;;;;;84.15;33.45;;;2.10;86.60;;;;;;6232955;28;20052;-80
2021/12/21 09:03:57;;;;;;;22.20;10.13;;;2.50;86.20;;;;;;6234314;28;20050;-80
2021/12/21 09:06:59;;;;;;;23.05;9.45;;;2.80;84.60;;;;;;6231794;28;20053;-81
2021/12/21 09:10:01;;;;;;;21.35;15.82;;;3.10;84.50;;;;;;6230748;28;20132;-80
2021/12/21 09:13:03;;;;;;;14.48;8.40;;;3.50;83.10;;;;;;6230130;28;20526;-80
2021/12/21 09:16:07;;;;;;;9.68;5.28;;;3.70;83.10;;;;;;6229686;28;20116;-81
2021/12/21 09:19:08;;;;;;;14.18;7.00;;;4.10;82.10;;;;;;6228893;28;20085;-81
2021/12/21 09:22:10;;;;;;;40.42;6.35;;;4.20;80.40;;;;;;6227255;28;20046;-77
2021/12/21 09:25:12;;;;;;;12.60;5.25;;;4.30;79.30;;;;;;6228375;28;20042;-78
2021/12/21 09:28:14;;;;;;;13.07;5.75;;;4.60;80.30;;;;;;6226704;28;20052;-77
2021/12/21 09:31:18;;;;;;;18.35;6.35;;;4.70;77.20;;;;;;6227784;28;20137;-80
2021/12/21 09:34:19;;;;;;;11.07;4.88;;;4.90;77.10;;;;;;6229026;28;20038;-80
2021/12/21 09:37:21;;;;;;;10.88;4.35;;;5.00;75.50;;;;;;6229292;28;20042;-82
2021/12/21 09:40:27;;;;;;;8.63;4.60;;;4.90;74.50;;;;;;6229477;28;20711;-82
2021/12/21 09:43:29;;;;;;;10.68;4.75;;;5.00;74.20;;;;;;6224240;28;20125;-82
2021/12/21 09:46:33;;;;;;;14.45;4.30;;;5.20;74.70;;;;;;6251113;28;20184;-79
2021/12/21 09:49:35;;;;;;;11.98;4.47;;;5.40;73.80;;;;;;6252027;28;20130;-77
2021/12/21 09:52:36;;;;;;;10.65;5.00;;;5.50;72.50;;;;;;6251327;28;20415;-78
2021/12/21 09:55:38;;;;;;;10.02;3.78;;;5.40;71.50;;;;;;6251210;28;20054;-80
2021/12/21 09:58:40;;;;;;;9.57;3.10;;;5.40;71.70;;;;;;6251239;28;20415;-80
2021/12/21 10:01:43;;;;;;;6.30;2.85;;;5.20;71.40;;;;;;6253091;28;20072;-82
2021/12/21 10:04:47;;;;;;;11.30;4.80;;;5.20;71.80;;;;;;6252332;28;20124;-78
2021/12/21 10:08:00;;;;;;;10.32;3.85;;;5.20;71.00;;;;;;6250797;28;20045;-78
2021/12/21 10:11:02;;;;;;;7.28;4.20;;;5.10;71.40;;;;;;6250712;28;20050;-77
2021/12/21 10:14:06;;;;;;;8.43;3.40;;;5.10;71.30;;;;;;6249978;28;20071;-77
2021/12/21 10:17:11;;;;;;;8.18;4.20;;;5.40;71.60;;;;;;6250716;28;20122;-80
2021/12/21 10:20:13;;;;;;;12.50;4.30;;;5.50;69.60;;;;;;6250162;22;20046;-78
2021/12/21 10:23:17;;;;;;;11.85;4.38;;;5.60;70.40;;;;;;6218056;28;20046;-78
2021/12/21 10:26:23;;;;;;;5.90;3.75;;;5.60;69.70;;;;;;6229135;28;20438;-79
2021/12/21 10:29:25;;;;;;;9.25;4.22;;;5.70;69.30;;;;;;6228822;28;20050;-78
2021/12/21 10:32:30;;;;;;;9.52;4.43;;;5.90;68.90;;;;;;6227118;28;20046;-79
2021/12/21 10:35:34;;;;;;;9.18;3.85;;;6.20;68.30;;;;;;6226832;28;20050;-81
2021/12/21 10:38:40;;;;;;;6.63;3.15;;;6.30;67.90;;;;;;6224836;28;20187;-79
2021/12/21 10:41:44;;;;;;;12.23;4.55;;;6.30;66.40;;;;;;6213824;28;20862;-79
2021/12/21 10:44:46;;;;;;;9.95;3.38;;;6.30;65.80;;;;;;6224068;28;20046;-79
2021/12/21 10:47:49;;;;;;;8.43;3.40;;;6.10;66.30;;;;;;6225391;28;20055;-79
2021/12/21 10:50:52;;;;;;;11.02;3.15;;;6.30;66.00;;;;;;6225696;28;20514;-79
2021/12/21 10:53:53;;;;;;;6.70;2.78;;;6.40;65.10;;;;;;6225644;28;20422;-79
2021/12/21 10:56:59;;;;;;;9.52;4.97;;;6.40;64.80;;;;;;6225980;28;20053;-79
2021/12/21 11:00:05;;;;;;;10.00;2.88;;;6.50;65.80;;;;;;6225864;28;20056;-79
2021/12/21 11:03:09;;;;;;;6.97;3.63;;;6.90;65.10;;;;;;6225999;28;20099;-79
2021/12/21 11:06:13;;;;;;;8.85;3.15;;;6.90;63.40;;;;;;6225117;28;20045;-79
2021/12/21 11:09:15;;;;;;;12.00;2.95;;;6.80;62.90;;;;;;6225221;28;20448;-80
2021/12/21 11:12:17;;;;;;;9.27;4.32;;;6.80;63.50;;;;;;6225199;28;20041;-79
2021/12/21 11:15:21;;;;;;;7.35;3.22;;;6.80;63.30;;;;;;6226798;28;20046;-79
2021/12/21 11:18:27;;;;;;;8.75;2.72;;;6.90;62.60;;;;;;6224711;28;20053;-80
2021/12/21 11:21:30;;;;;;;9.95;2.85;;;6.70;62.90;;;;;;6227011;28;20045;-80
2021/12/21 11:24:35;;;;;;;18.90;8.38;;;6.70;63.10;;;;;;6201313;28;20055;-79
2021/12/21 11:27:40;;;;;;;10.50;3.95;;;6.80;62.60;;;;;;6206781;28;20054;-79
2021/12/21 11:30:43;;;;;;;5.82;2.70;;;6.90;62.60;;;;;;6201464;28;20519;-79
2021/12/21 11:33:48;;;;;;;9.23;2.78;;;7.10;62.80;;;;;;6201187;28;20057;-78
2021/12/21 11:40:15;;;;;;;8.38;4.05;;;7.30;61.30;;;;;;6200576;28;20492;-79
2021/12/21 11:43:28;;;;;;;5.50;2.97;;;7.50;62.10;;;;;;6200798;28;20057;-79
2021/12/21 11:46:39;;;;;;;7.78;2.85;;;7.70;60.80;;;;;;6200079;28;20054;-79
2021/12/21 11:49:48;;;;;;;9.15;3.40;;;7.70;60.50;;;;;;6219953;28;20668;-78
2021/12/21 11:52:52;;;;;;;11.05;3.60;;;7.60;60.60;;;;;;6225895;28;20056;-79
2021/12/21 11:55:54;;;;;;;5.38;2.38;;;7.50;60.90;;;;;;6225725;28;20156;-79
2021/12/21 11:58:58;;;;;;;4.22;2.72;;;7.80;60.60;;;;;;6225922;28;20426;-79
2021/12/21 12:02:01;;;;;;;9.95;3.80;;;7.80;60.00;;;;;;6225892;28;20518;-79
2021/12/21 12:05:15;;;;;;;8.15;2.75;;;7.80;60.40;;;;;;6226033;28;20114;-79
2021/12/21 12:08:17;;;;;;;9.02;3.25;;;8.10;59.80;;;;;;6225543;28;20050;-79
2021/12/21 12:11:24;;;;;;;7.60;3.13;;;8.10;59.10;;;;;;6225851;28;20132;-80
2021/12/21 12:14:26;;;;;;;7.07;3.03;;;8.20;60.80;;;;;;6226100;28;20042;-83
2021/12/21 12:17:30;;;;;;;4.43;2.03;;;8.40;60.60;;;;;;6226208;28;20128;-81
2021/12/21 12:20:33;;;;;;;9.27;3.55;;;8.60;59.00;;;;;;6200261;28;20046;-81
2021/12/21 12:23:44;;;;;;;10.27;2.97;;;8.30;58.60;;;;;;6215673;28;20038;-82
2021/12/21 12:26:57;;;;;;;10.27;2.97;;;8.70;58.30;;;;;;6202246;28;20042;-80
2021/12/21 12:30:01;;;;;;;11.40;2.55;;;8.90;56.80;;;;;;6202222;28;20082;-79
2021/12/21 12:33:06;;;;;;;7.57;3.38;;;8.90;57.50;;;;;;6202273;28;20121;-80
2021/12/21 12:36:10;;;;;;;10.57;3.50;;;8.90;57.00;;;;;;6206594;28;20042;-79
2021/12/21 12:39:11;;;;;;;7.47;2.65;;;8.80;56.60;;;;;;6206584;28;20189;-80
2021/12/21 12:42:17;;;;;;;6.22;3.38;;;8.50;56.70;;;;;;6206826;28;20108;-81
2021/12/21 12:45:21;;;;;;;6.30;2.42;;;8.40;57.70;;;;;;6206560;28;20038;-79
2021/12/21 12:48:29;;;;;;;4.15;2.58;;;8.60;57.30;;;;;;6206493;28;20047;-80
2021/12/21 12:51:37;;;;;;;9.77;3.13;;;8.40;57.00;;;;;;6229364;28;20045;-79
2021/12/21 12:54:47;;;;;;;6.43;2.42;;;8.50;57.60;;;;;;6227963;28;20046;-79
2021/12/21 12:57:54;;;;;;;8.20;2.55;;;8.50;57.20;;;;;;6227725;28;20056;-79
2021/12/21 13:01:03;;;;;;;2.93;1.67;;;8.40;57.00;;;;;;6230502;28;20064;-80
2021/12/21 13:04:09;;;;;;;12.50;2.63;;;8.30;57.50;;;;;;6230875;28;20049;-79
2021/12/21 13:07:13;;;;;;;5.18;2.80;;;8.20;57.50;;;;;;6230666;28;20073;-81
2021/12/21 13:10:15;;;;;;;6.13;2.80;;;8.00;58.20;;;;;;6229492;28;20132;-80
2021/12/21 13:13:18;;;;;;;4.38;2.50;;;7.90;57.80;;;;;;6228096;28;20057;-79
2021/12/21 13:16:21;;;;;;;9.48;2.40;;;7.60;58.40;;;;;;6227309;28;20041;-80
2021/12/21 13:19:26;;;;;;;8.43;2.85;;;7.40;58.80;;;;;;6228607;28;20087;-81
2021/12/21 13:22:29;;;;;;;6.80;2.97;;;7.30;59.60;;;;;;6223865;28;20066;-80
2021/12/21 13:25:31;;;;;;;8.65;2.17;;;7.10;60.20;;;;;;6226496;28;20523;-81
2021/12/21 13:28:45;;;;;;;5.97;2.60;;;6.80;60.30;;;;;;6227565;28;20401;-82
2021/12/21 13:31:48;;;;;;;5.50;2.25;;;6.70;61.80;;;;;;6225401;28;20046;-80
2021/12/21 13:34:56;;;;;;;5.22;1.60;;;6.60;61.30;;;;;;6229648;28;20060;-81
2021/12/21 13:37:59;;;;;;;10.18;2.75;;;6.50;61.20;;;;;;6229215;28;20500;-81
2021/12/21 13:41:04;;;;;;;7.32;2.25;;;6.40;61.80;;;;;;6229225;28;20129;-81
2021/12/21 13:44:06;;;;;;;7.15;2.35;;;6.40;62.30;;;;;;6208252;28;20042;-80
2021/12/21 13:47:18;;;;;;;5.47;2.28;;;6.30;62.40;;;;;;6206011;28;20057;-80
2021/12/21 13:50:23;;;;;;;6.20;2.78;;;6.40;62.60;;;;;;6223001;28;20046;-81
2021/12/21 13:53:26;;;;;;;4.90;2.45;;;6.40;62.50;;;;;;6227735;28;20511;-82
2021/12/21 13:56:32;;;;;;;5.38;2.88;;;6.30;62.70;;;;;;6228625;28;20042;-82
2021/12/21 13:59:37;;;;;;;9.27;3.35;;;6.30;62.70;;;;;;6232056;28;20081;-81
2021/12/21 14:02:50;;;;;;;8.02;3.67;;;6.10;63.00;;;;;;6232186;28;20050;-81
2021/12/21 14:05:57;;;;;;;4.97;2.38;;;5.90;63.40;;;;;;6232067;28;20042;-81
2021/12/21 14:09:02;;;;;;;8.63;2.42;;;5.90;64.10;;;;;;6232489;28;20527;-81
2021/12/21 14:12:05;;;;;;;9.35;2.53;;;5.90;65.10;;;;;;6235052;28;20054;-81
2021/12/21 14:15:07;;;;;;;13.05;4.63;;;6.00;64.40;;;;;;6234551;28;20159;-80
2021/12/21 14:18:17;;;;;;;8.05;3.75;;;5.90;64.10;;;;;;6232128;28;20147;-80
2021/12/21 14:21:20;;;;;;;8.00;3.28;;;6.00;64.80;;;;;;6231540;28;20054;-81
2021/12/21 14:24:26;;;;;;;4.47;2.10;;;6.10;64.00;;;;;;6230158;28;20052;-80
2021/12/21 14:27:29;;;;;;;2.67;2.03;;;6.00;64.20;;;;;;6218785;28;20136;-80
2021/12/21 14:30:31;;;;;;;6.63;2.92;;;5.80;64.60;;;;;;6229112;28;20060;-80
2021/12/21 14:33:45;;;;;;;4.22;3.13;;;5.70;64.90;;;;;;6227945;28;20634;-81
2021/12/21 14:36:47;;;;;;;4.25;2.60;;;5.60;65.60;;;;;;6228553;28;20446;-80
2021/12/21 14:39:55;;;;;;;3.33;2.17;;;5.40;65.90;;;;;;6230739;28;20084;-80
2021/12/21 14:42:57;;;;;;;;;;;5.20;66.20;;;;;;6230447;28;20045;-81
2021/12/21 14:46:00;;;;;;;4.00;2.40;;;5.10;67.20;;;;;;6227622;28;20295;-80
2021/12/21 14:49:05;;;;;;;3.70;1.98;;;5.00;67.40;;;;;;6228920;28;20049;-81
2021/12/21 14:52:17;;;;;;;6.57;3.05;;;4.90;67.70;;;;;;6224872;28;20383;-81
2021/12/21 14:55:25;;;;;;;9.50;3.22;;;4.70;68.00;;;;;;6234254;28;20056;-81
2021/12/21 14:58:27;;;;;;;6.18;2.72;;;4.60;68.60;;;;;;6231088;28;20045;-81
2021/12/21 15:01:55;;;;;;;9.85;2.97;;;4.40;69.00;;;;;;6230438;28;20056;-81
2021/12/21 15:04:58;;;;;;;9.90;5.00;;;4.30;69.70;;;;;;6227291;28;20133;-82
2021/12/21 15:08:02;;;;;;;8.80;3.33;;;4.20;70.50;;;;;;6231566;28;20054;-80
2021/12/21 15:11:05;;;;;;;5.53;2.47;;;4.10;70.90;;;;;;6228674;28;20054;-80
2021/12/21 15:14:07;;;;;;;15.52;4.45;;;4.00;71.40;;;;;;6225449;28;20042;-81
2021/12/21 15:17:09;;;;;;;7.20;4.25;;;4.00;71.50;;;;;;6228885;28;20134;-80
2021/12/21 15:20:12;;;;;;;6.80;3.65;;;3.90;71.70;;;;;;6227307;28;20052;-80
2021/12/21 15:23:13;;;;;;;10.25;3.03;;;3.90;72.10;;;;;;6227776;28;20064;-82
2021/12/21 15:26:17;;;;;;;8.00;5.20;;;3.80;72.70;;;;;;6219961;28;20046;-80
2021/12/21 15:29:18;;;;;;;8.88;4.55;;;3.70;72.90;;;;;;6217220;28;20057;-80
2021/12/21 15:32:20;;;;;;;7.57;3.15;;;3.60;73.50;;;;;;6227461;28;20545;-81
2021/12/21 15:35:24;;;;;;;15.57;3.78;;;3.50;73.90;;;;;;6228986;28;20416;-80
2021/12/21 15:38:25;;;;;;;7.28;2.92;;;3.50;74.40;;;;;;6227382;28;20056;-79
2021/12/21 15:41:29;;;;;;;8.95;2.75;;;3.40;74.90;;;;;;6227395;28;20180;-80
2021/12/21 15:44:45;;;;;;;11.38;3.47;;;3.30;75.30;;;;;;6229636;28;20415;-82
2021/12/21 15:57:27;;;;;;;6.57;3.22;;;3.00;76.90;;;;;;6226259;28;20512;-81
2021/12/21 16:00:41;;;;;;;11.80;4.35;;;3.00;77.30;;;;;;6227570;28;20503;-82
2021/12/21 16:03:44;;;;;;;13.18;3.15;;;3.00;77.20;;;;;;6230376;28;20117;-80
2021/12/21 16:06:46;;;;;;;14.00;5.57;;;2.90;77.60;;;;;;6230951;28;20127;-81
2021/12/21 16:09:48;;;;;;;12.60;3.83;;;2.90;77.60;;;;;;6233309;28;20045;-79
2021/12/21 16:12:51;;;;;;;6.80;3.17;;;2.80;77.90;;;;;;6243634;28;20073;-78
2021/12/21 16:15:53;;;;;;;7.90;4.28;;;2.80;78.20;;;;;;6235312;28;20521;-80
2021/12/21 16:18:55;;;;;;;8.27;4.03;;;2.70;78.10;;;;;;6230342;28;20129;-82
2021/12/21 16:21:56;;;;;;;13.43;5.50;;;2.70;78.30;;;;;;6228292;28;20059;-81
2021/12/21 16:24:58;;;;;;;13.82;3.90;;;2.60;78.50;;;;;;6229292;28;20050;-81
2021/12/21 16:28:02;;;;;;;11.95;6.38;;;2.60;78.50;;;;;;6226518;28;20108;-80
2021/12/21 16:31:04;;;;;;;15.05;6.32;;;2.60;78.60;;;;;;6226839;28;20104;-82
2021/12/21 16:34:06;;;;;;;9.95;4.22;;;2.60;78.60;;;;;;6227652;28;20066;-82
2021/12/21 16:37:08;;;;;;;8.55;3.92;;;2.50;79.10;;;;;;6227710;28;20052;-81
2021/12/21 16:40:11;;;;;;;15.27;4.25;;;2.50;79.30;;;;;;6227929;28;20099;-80
2021/12/21 16:43:15;;;;;;;9.55;4.85;;;2.40;79.40;;;;;;6223793;28;20049;-79
2021/12/21 16:46:17;;;;;;;11.77;4.40;;;2.40;79.20;;;;;;6222412;28;20049;-79